Time;durP1;ratioP1;P1;durP2;ratioP2;P2;SDS_P1;SDS_P2;PMS_P1;PMS_P2;Temp;Humidity;BMP_temperature;BMP_pressure;BME280_temperature;BME280_humidity;BME280_pressure;Samples;Min_cycle;Max_cycle;Signal;HPM_P1;HPM_P2
2022/06/06 00:01:51;;;;;;;44.93;25.60;;;;;;;;;;4956160;28;20394;-51
2022/06/06 00:04:18;;;;;;;51.20;28.00;;;;;;;;;;4955793;28;20406;-51
2022/06/06 00:06:44;;;;;;;43.73;25.93;;;;;;;;;;4956167;28;20432;-51
2022/06/06 00:09:12;;;;;;;56.57;28.93;;;;;;;;;;4955714;28;20412;-50
2022/06/06 00:11:38;;;;;;;53.33;26.63;;;;;;;;;;4954824;28;20444;-51
2022/06/06 00:14:05;;;;;;;57.47;29.70;;;;;;;;;;4954653;28;20398;-50
2022/06/06 00:16:31;;;;;;;53.33;28.50;;;;;;;;;;4954836;28;20393;-50
2022/06/06 00:18:57;;;;;;;51.93;29.93;;;;;;;;;;4955173;28;20443;-51
2022/06/06 00:21:23;;;;;;;56.20;28.37;;;;;;;;;;4955744;28;20449;-50
2022/06/06 00:23:50;;;;;;;56.07;31.37;;;;;;;;;;4955448;28;20381;-50
2022/06/06 00:26:16;;;;;;;53.63;31.33;;;;;;;;;;4954817;28;20525;-50
2022/06/06 00:28:44;;;;;;;56.47;28.03;;;;;;;;;;4955496;28;20930;-51
2022/06/06 00:36:40;;;;;;;57.80;31.40;;;;;;;;;;4955222;29;20447;-51
2022/06/06 00:39:08;;;;;;;49.57;29.30;;;;;;;;;;4955523;28;20767;-50
2022/06/06 00:41:38;;;;;;;58.10;29.57;;;;;;;;;;4958716;28;20791;-52
2022/06/06 00:44:11;;;;;;;53.90;31.83;;;;;;;;;;4959048;28;20407;-51
2022/06/06 00:46:55;;;;;;;63.07;30.60;;;;;;;;;;4958895;28;20408;-51
2022/06/06 00:49:25;;;;;;;52.43;29.17;;;;;;;;;;4958592;28;20413;-51
2022/06/06 00:51:51;;;;;;;54.47;30.30;;;;;;;;;;4958223;28;20927;-50
2022/06/06 00:54:17;;;;;;;53.03;28.77;;;;;;;;;;4958081;28;20419;-52
2022/06/06 00:56:49;;;;;;;50.07;30.23;;;;;;;;;;4956911;28;20771;-52
2022/06/06 00:59:17;;;;;;;59.70;29.40;;;;;;;;;;4957637;28;20528;-50
2022/06/06 01:01:43;;;;;;;51.40;28.17;;;;;;;;;;4955827;29;20830;-50
2022/06/06 01:04:11;;;;;;;53.53;29.17;;;;;;;;;;4956854;28;20381;-48
2022/06/06 01:06:39;;;;;;;51.70;28.77;;;;;;;;;;4956478;28;20496;-49
2022/06/06 01:09:06;;;;;;;60.10;30.07;;;;;;;;;;4957248;28;20475;-50
2022/06/06 01:11:36;;;;;;;52.40;27.10;;;;;;;;;;4957669;28;20466;-51
2022/06/06 01:14:03;;;;;;;62.33;30.90;;;;;;;;;;4956606;29;20376;-51
2022/06/06 01:16:32;;;;;;;52.27;28.63;;;;;;;;;;4957521;28;20400;-51
2022/06/06 01:19:16;;;;;;;52.97;26.33;;;;;;;;;;4957371;28;20396;-49
2022/06/06 01:21:59;;;;;;;54.13;27.80;;;;;;;;;;4956937;28;20369;-49
2022/06/06 01:24:49;;;;;;;56.60;29.40;;;;;;;;;;4957161;28;20369;-50
2022/06/06 01:27:34;;;;;;;56.50;29.43;;;;;;;;;;4956964;28;20740;-49
2022/06/06 01:30:01;;;;;;;58.87;29.30;;;;;;;;;;4956820;28;20460;-49
2022/06/06 01:32:28;;;;;;;63.20;30.63;;;;;;;;;;4957212;28;20410;-51
2022/06/06 01:34:55;;;;;;;51.33;28.60;;;;;;;;;;4956710;28;20787;-51
2022/06/06 01:37:25;;;;;;;53.03;27.60;;;;;;;;;;4956659;28;20456;-50
2022/06/06 01:39:51;;;;;;;53.60;27.80;;;;;;;;;;4956537;28;20381;-50
2022/06/06 01:42:23;;;;;;;56.30;27.90;;;;;;;;;;4956561;28;20377;-50
2022/06/06 01:44:49;;;;;;;53.00;24.97;;;;;;;;;;4956394;28;20487;-51
2022/06/06 01:47:17;;;;;;;59.00;28.60;;;;;;;;;;4956737;28;20452;-50
2022/06/06 01:49:45;;;;;;;52.33;27.03;;;;;;;;;;4956496;28;20864;-50
2022/06/06 01:52:12;;;;;;;51.50;26.90;;;;;;;;;;4956430;28;20438;-50
2022/06/06 01:54:39;;;;;;;42.07;25.23;;;;;;;;;;4956016;28;20402;-50
2022/06/06 01:57:05;;;;;;;48.83;24.93;;;;;;;;;;4956200;28;20475;-50
2022/06/06 01:59:32;;;;;;;54.67;26.10;;;;;;;;;;4956257;28;20429;-51
2022/06/06 02:01:58;;;;;;;49.37;25.87;;;;;;;;;;4956348;28;20377;-51
2022/06/06 02:04:24;;;;;;;50.57;25.43;;;;;;;;;;4956089;28;20789;-51
2022/06/06 02:06:51;;;;;;;54.83;26.90;;;;;;;;;;4956228;28;20435;-51
2022/06/06 02:09:17;;;;;;;48.60;26.07;;;;;;;;;;4955983;28;20416;-51
2022/06/06 02:11:43;;;;;;;48.13;27.90;;;;;;;;;;4956169;28;20410;-51
2022/06/06 02:14:09;;;;;;;58.53;27.20;;;;;;;;;;4956095;28;20405;-51
2022/06/06 02:16:36;;;;;;;51.20;24.53;;;;;;;;;;4955837;28;20421;-51
2022/06/06 02:19:03;;;;;;;49.20;26.17;;;;;;;;;;4955964;28;20417;-51
2022/06/06 02:21:29;;;;;;;53.77;25.10;;;;;;;;;;4955959;28;20417;-50
2022/06/06 02:23:55;;;;;;;49.60;23.70;;;;;;;;;;4955794;28;20383;-51
2022/06/06 02:26:22;;;;;;;46.43;22.67;;;;;;;;;;4955653;28;20458;-51
2022/06/06 02:28:48;;;;;;;50.93;26.47;;;;;;;;;;4955891;28;20774;-50
2022/06/06 02:31:14;;;;;;;55.67;25.57;;;;;;;;;;4955719;28;20406;-51
2022/06/06 02:33:40;;;;;;;50.43;23.47;;;;;;;;;;4956064;28;20775;-50
2022/06/06 02:36:06;;;;;;;54.60;27.17;;;;;;;;;;4955932;28;20425;-51
2022/06/06 02:38:32;;;;;;;46.47;23.17;;;;;;;;;;4955451;28;20488;-51
2022/06/06 02:41:07;;;;;;;56.90;25.40;;;;;;;;;;4955532;28;20443;-51
2022/06/06 02:43:43;;;;;;;51.07;24.87;;;;;;;;;;4955611;28;20397;-51
2022/06/06 02:46:11;;;;;;;55.53;26.00;;;;;;;;;;4955216;28;20479;-51
2022/06/06 02:48:37;;;;;;;48.63;25.43;;;;;;;;;;4955489;28;20410;-51
2022/06/06 02:51:04;;;;;;;56.60;24.97;;;;;;;;;;4955302;28;20406;-51
2022/06/06 02:53:30;;;;;;;50.30;23.40;;;;;;;;;;4955333;28;20504;-52
2022/06/06 02:55:57;;;;;;;51.93;24.10;;;;;;;;;;4954946;28;20407;-51
2022/06/06 02:58:24;;;;;;;46.50;21.10;;;;;;;;;;4955142;28;20515;-51
2022/06/06 03:00:54;;;;;;;50.80;23.23;;;;;;;;;;4955097;28;20437;-51
2022/06/06 03:03:20;;;;;;;40.60;21.77;;;;;;;;;;4954737;28;20394;-51
2022/06/06 03:06:05;;;;;;;48.93;24.63;;;;;;;;;;4954909;28;20414;-51
2022/06/06 03:08:34;;;;;;;52.00;24.37;;;;;;;;;;4955032;28;20999;-51
2022/06/06 03:11:00;;;;;;;45.40;21.70;;;;;;;;;;4955045;28;20405;-51
2022/06/06 03:13:26;;;;;;;48.40;23.30;;;;;;;;;;4954934;28;20416;-51
2022/06/06 03:21:43;;;;;;;48.63;22.57;;;;;;;;;;4952556;28;20579;-50
2022/06/06 03:24:24;;;;;;;42.77;20.20;;;;;;;;;;4955046;28;20760;-52
2022/06/06 03:26:53;;;;;;;41.30;18.73;;;;;;;;;;4954546;28;20945;-51
2022/06/06 03:29:19;;;;;;;52.67;23.80;;;;;;;;;;4954786;28;20408;-51
2022/06/06 03:32:04;;;;;;;43.60;22.10;;;;;;;;;;4954681;28;21135;-51
2022/06/06 03:34:43;;;;;;;44.27;22.77;;;;;;;;;;4954383;28;20408;-50
2022/06/06 03:37:15;;;;;;;57.67;24.50;;;;;;;;;;4954448;28;20964;-51
2022/06/06 03:39:46;;;;;;;46.23;21.90;;;;;;;;;;4954533;28;20405;-51
2022/06/06 03:42:30;;;;;;;63.77;25.43;;;;;;;;;;4954555;28;20907;-50
2022/06/06 03:45:02;;;;;;;56.40;25.07;;;;;;;;;;4954212;28;20455;-51
2022/06/06 03:47:47;;;;;;;49.07;24.57;;;;;;;;;;4954362;28;20441;-51
2022/06/06 03:50:13;;;;;;;54.10;23.77;;;;;;;;;;4954354;28;20386;-51
2022/06/06 03:52:51;;;;;;;48.70;21.70;;;;;;;;;;4954242;28;20379;-51
2022/06/06 03:55:35;;;;;;;53.53;24.47;;;;;;;;;;4954092;28;20421;-51
2022/06/06 03:58:03;;;;;;;44.83;22.53;;;;;;;;;;4954002;28;20504;-50
2022/06/06 04:00:30;;;;;;;42.00;21.80;;;;;;;;;;4954342;28;20709;-51
2022/06/06 04:02:58;;;;;;;38.70;21.80;;;;;;;;;;4954102;28;20401;-51
2022/06/06 04:05:23;;;;;;;42.63;21.37;;;;;;;;;;4954003;28;20905;-51
2022/06/06 04:07:50;;;;;;;46.47;21.60;;;;;;;;;;4954127;28;20387;-51
2022/06/06 04:10:16;;;;;;;42.37;21.70;;;;;;;;;;4953974;28;20408;-51
2022/06/06 04:12:51;;;;;;;37.87;20.73;;;;;;;;;;4954103;28;20390;-51
2022/06/06 04:15:17;;;;;;;40.70;20.87;;;;;;;;;;4953002;28;20902;-51
2022/06/06 04:17:52;;;;;;;40.63;21.50;;;;;;;;;;4953896;28;20442;-51
2022/06/06 04:20:23;;;;;;;36.70;19.57;;;;;;;;;;4953865;28;20935;-51
2022/06/06 04:22:57;;;;;;;35.67;18.53;;;;;;;;;;4953990;28;20516;-51
2022/06/06 04:25:43;;;;;;;36.90;19.60;;;;;;;;;;4953656;28;20425;-51
2022/06/06 04:28:24;;;;;;;40.53;19.13;;;;;;;;;;4950122;28;20406;-51
2022/06/06 04:31:01;;;;;;;32.90;18.07;;;;;;;;;;4954088;28;20486;-51
2022/06/06 04:33:36;;;;;;;39.57;20.40;;;;;;;;;;4953919;28;20379;-51
2022/06/06 04:36:06;;;;;;;29.03;16.77;;;;;;;;;;4953543;28;20418;-52
2022/06/06 04:38:35;;;;;;;27.70;16.03;;;;;;;;;;4953708;28;20457;-51
2022/06/06 04:41:15;;;;;;;22.87;14.23;;;;;;;;;;4953701;28;20402;-51
2022/06/06 04:43:47;;;;;;;22.53;13.40;;;;;;;;;;4953821;28;20389;-51
2022/06/06 04:46:22;;;;;;;25.50;12.17;;;;;;;;;;4953430;28;20407;-49
2022/06/06 04:48:48;;;;;;;22.33;11.50;;;;;;;;;;4953739;28;20395;-57
2022/06/06 04:51:17;;;;;;;17.67;11.87;;;;;;;;;;4953602;28;20410;-51
2022/06/06 04:53:45;;;;;;;22.23;12.33;;;;;;;;;;4953350;28;20391;-51
2022/06/06 04:56:14;;;;;;;15.77;10.13;;;;;;;;;;4953042;28;20817;-51
2022/06/06 04:58:40;;;;;;;17.27;10.50;;;;;;;;;;4953184;28;20442;-50
2022/06/06 05:01:07;;;;;;;18.27;11.53;;;;;;;;;;4953058;28;20409;-50
2022/06/06 05:03:33;;;;;;;19.33;10.87;;;;;;;;;;4953454;28;20401;-51
2022/06/06 05:06:06;;;;;;;17.00;10.17;;;;;;;;;;4953497;28;20430;-51
2022/06/06 05:08:43;;;;;;;16.53;9.47;;;;;;;;;;4953474;28;20472;-51
2022/06/06 05:11:23;;;;;;;14.80;9.23;;;;;;;;;;4953508;28;20402;-51
2022/06/06 05:14:01;;;;;;;14.00;9.20;;;;;;;;;;4953539;28;20410;-50
2022/06/06 05:16:33;;;;;;;13.77;8.53;;;;;;;;;;4952966;28;20457;-50
2022/06/06 05:19:02;;;;;;;15.60;9.13;;;;;;;;;;4953404;28;20950;-51
2022/06/06 05:21:58;;;;;;;15.27;9.73;;;;;;;;;;4953318;28;20408;-50
2022/06/06 05:24:35;;;;;;;14.10;8.43;;;;;;;;;;4917773;28;20390;-50
2022/06/06 05:27:17;;;;;;;10.70;8.33;;;;;;;;;;4956811;28;20390;-51
2022/06/06 05:29:43;;;;;;;15.53;9.03;;;;;;;;;;4956899;28;20414;-51
2022/06/06 05:32:32;;;;;;;13.37;8.80;;;;;;;;;;4956733;28;20452;-50
2022/06/06 05:35:08;;;;;;;12.77;8.17;;;;;;;;;;4950296;28;20472;-51
2022/06/06 05:37:43;;;;;;;10.80;8.30;;;;;;;;;;4975846;28;20431;-51
2022/06/06 05:40:14;;;;;;;14.40;8.50;;;;;;;;;;4970756;28;20376;-51
2022/06/06 05:42:49;;;;;;;14.00;8.93;;;;;;;;;;4975889;28;20386;-51
2022/06/06 05:45:32;;;;;;;13.10;8.50;;;;;;;;;;4975835;28;20424;-51
2022/06/06 05:48:01;;;;;;;11.90;8.70;;;;;;;;;;4973298;28;20414;-51
2022/06/06 05:50:33;;;;;;;12.30;8.50;;;;;;;;;;4967834;28;20878;-51
2022/06/06 05:53:17;;;;;;;14.10;8.43;;;;;;;;;;4975702;28;20814;-51
2022/06/06 05:56:16;;;;;;;15.83;8.23;;;;;;;;;;4975678;28;20404;-51
2022/06/06 05:58:53;;;;;;;12.43;8.23;;;;;;;;;;4953230;28;20452;-51
2022/06/06 06:01:37;;;;;;;13.17;8.83;;;;;;;;;;4975759;28;20439;-51
2022/06/06 06:04:13;;;;;;;12.70;7.20;;;;;;;;;;4975691;28;20409;-51
2022/06/06 06:06:55;;;;;;;11.83;8.13;;;;;;;;;;4975628;28;20424;-51
2022/06/06 06:09:20;;;;;;;10.50;7.37;;;;;;;;;;4975492;28;20496;-50
2022/06/06 06:12:01;;;;;;;9.87;6.97;;;;;;;;;;4975726;28;20441;-51
2022/06/06 06:14:27;;;;;;;11.23;7.13;;;;;;;;;;4975335;28;20405;-51
2022/06/06 06:16:55;;;;;;;10.27;6.90;;;;;;;;;;4972864;28;20405;-51
2022/06/06 06:19:24;;;;;;;10.33;6.90;;;;;;;;;;4956059;28;20417;-51
2022/06/06 06:21:54;;;;;;;11.93;7.10;;;;;;;;;;4955869;28;20405;-51
2022/06/06 06:24:24;;;;;;;11.30;7.37;;;;;;;;;;4956085;28;20455;-52
2022/06/06 06:26:52;;;;;;;8.97;6.00;;;;;;;;;;4955498;28;20438;-51
2022/06/06 06:29:18;;;;;;;8.47;6.17;;;;;;;;;;4955918;28;20493;-51
2022/06/06 06:31:53;;;;;;;7.30;6.60;;;;;;;;;;4955908;28;20445;-51
2022/06/06 06:34:38;;;;;;;9.50;6.70;;;;;;;;;;4955741;28;20413;-51
2022/06/06 06:37:08;;;;;;;7.03;5.10;;;;;;;;;;4935578;29;20960;-51
2022/06/06 06:39:48;;;;;;;8.90;5.80;;;;;;;;;;4936883;29;20808;-51
2022/06/06 06:42:14;;;;;;;8.10;5.80;;;;;;;;;;4936542;28;20404;-51
2022/06/06 06:44:45;;;;;;;6.97;5.47;;;;;;;;;;4937901;29;20429;-51
2022/06/06 06:47:15;;;;;;;9.70;5.77;;;;;;;;;;4936663;28;20422;-51
2022/06/06 06:49:43;;;;;;;9.20;6.00;;;;;;;;;;4944436;29;21016;-51
2022/06/06 06:52:15;;;;;;;7.00;5.17;;;;;;;;;;4955158;28;20421;-49
2022/06/06 06:54:41;;;;;;;5.40;4.90;;;;;;;;;;4954981;28;20849;-51
2022/06/06 06:57:11;;;;;;;7.57;6.13;;;;;;;;;;4955776;28;20466;-51
2022/06/06 06:59:47;;;;;;;6.50;5.13;;;;;;;;;;4955300;28;20501;-51
2022/06/06 07:08:32;;;;;;;9.07;5.50;;;;;;;;;;4955173;29;20421;-51
2022/06/06 07:11:10;;;;;;;8.50;5.33;;;;;;;;;;4955436;28;20423;-51
2022/06/06 07:13:50;;;;;;;6.13;4.83;;;;;;;;;;4954398;28;20400;-50
2022/06/06 07:16:35;;;;;;;6.10;5.00;;;;;;;;;;4953277;28;20399;-50
2022/06/06 07:19:10;;;;;;;4.83;4.30;;;;;;;;;;4951890;29;20500;-50
2022/06/06 07:21:37;;;;;;;4.50;4.10;;;;;;;;;;4955128;28;20385;-50
2022/06/06 07:24:05;;;;;;;4.93;4.30;;;;;;;;;;4954866;28;20378;-50
2022/06/06 07:26:31;;;;;;;6.80;5.23;;;;;;;;;;4954059;28;20802;-51
2022/06/06 07:28:57;;;;;;;4.53;4.13;;;;;;;;;;4953097;29;20431;-50
2022/06/06 07:31:36;;;;;;;8.33;3.97;;;;;;;;;;4944407;29;20421;-51
2022/06/06 07:34:14;;;;;;;6.00;4.07;;;;;;;;;;4954771;28;20747;-49
2022/06/06 07:36:43;;;;;;;7.83;5.00;;;;;;;;;;4935177;29;20510;-50
2022/06/06 07:39:18;;;;;;;4.73;4.10;;;;;;;;;;4941784;29;20430;-50
2022/06/06 07:41:50;;;;;;;5.60;4.10;;;;;;;;;;4960449;28;20400;-51
2022/06/06 07:44:35;;;;;;;4.60;4.20;;;;;;;;;;4954396;28;20898;-50
2022/06/06 07:47:18;;;;;;;5.00;4.23;;;;;;;;;;4953830;28;20402;-51
2022/06/06 07:50:04;;;;;;;4.77;3.43;;;;;;;;;;4954736;28;20810;-51
2022/06/06 07:52:44;;;;;;;5.03;4.40;;;;;;;;;;4936323;29;20850;-51
2022/06/06 07:55:20;;;;;;;4.70;3.70;;;;;;;;;;4954216;29;20405;-51
2022/06/06 07:57:46;;;;;;;7.50;3.10;;;;;;;;;;4954695;28;20471;-50
2022/06/06 08:00:17;;;;;;;3.47;3.10;;;;;;;;;;4954953;28;20402;-51
2022/06/06 08:02:49;;;;;;;4.10;3.50;;;;;;;;;;4954701;28;20817;-50
2022/06/06 08:05:14;;;;;;;4.03;3.43;;;;;;;;;;4954757;28;20789;-51
2022/06/06 08:07:54;;;;;;;3.40;2.60;;;;;;;;;;4954120;28;20393;-51
2022/06/06 08:10:39;;;;;;;7.23;2.83;;;;;;;;;;4954227;28;20401;-51
2022/06/06 08:13:06;;;;;;;4.47;2.70;;;;;;;;;;4935004;29;20459;-51
2022/06/06 08:15:38;;;;;;;2.97;2.73;;;;;;;;;;4934589;29;20934;-52
2022/06/06 08:18:12;;;;;;;3.50;2.80;;;;;;;;;;4934870;29;20518;-51
2022/06/06 08:20:48;;;;;;;3.33;3.13;;;;;;;;;;4952301;29;20949;-52
2022/06/06 08:23:15;;;;;;;2.70;2.50;;;;;;;;;;4954116;28;20419;-51
2022/06/06 08:25:42;;;;;;;2.57;2.30;;;;;;;;;;4953492;28;20448;-52
2022/06/06 08:28:10;;;;;;;2.60;2.40;;;;;;;;;;4953847;28;20420;-52
2022/06/06 08:30:37;;;;;;;5.13;2.47;;;;;;;;;;4953725;28;20438;-52
2022/06/06 08:33:03;;;;;;;3.40;1.83;;;;;;;;;;4953746;28;20994;-52
2022/06/06 08:35:36;;;;;;;2.17;1.97;;;;;;;;;;4953588;28;20546;-50
2022/06/06 08:38:28;;;;;;;6.30;2.50;;;;;;;;;;4953556;28;21204;-51
2022/06/06 08:41:14;;;;;;;7.23;6.03;;;;;;;;;;4937478;28;20786;-52
2022/06/06 08:43:58;;;;;;;2.43;2.23;;;;;;;;;;4953315;28;20424;-51
2022/06/06 08:46:28;;;;;;;3.00;2.70;;;;;;;;;;4954604;28;20426;-51
2022/06/06 08:50:44;;;;;;;1.70;1.60;;;;;;;;;;4954545;28;20421;-51
2022/06/06 08:52:09;;;;;;;3.17;2.10;;;;;;;;;;4954606;28;20992;-52
2022/06/06 08:55:01;;;;;;;2.00;1.80;;;;;;;;;;4954428;28;20421;-52
2022/06/06 08:57:27;;;;;;;2.43;1.63;;;;;;;;;;4952330;29;20904;-53
2022/06/06 09:00:12;;;;;;;3.40;2.10;;;;;;;;;;4955345;28;20422;-52
2022/06/06 09:02:57;;;;;;;3.00;1.60;;;;;;;;;;4958562;28;20969;-52
2022/06/06 09:05:26;;;;;;;1.37;1.27;;;;;;;;;;4957435;28;20426;-52
2022/06/06 09:07:52;;;;;;;1.23;1.13;;;;;;;;;;4938641;29;20890;-52
2022/06/06 09:10:38;;;;;;;3.40;1.23;;;;;;;;;;4939464;29;20411;-52
2022/06/06 09:13:07;;;;;;;1.80;1.70;;;;;;;;;;4957673;28;20402;-52
2022/06/06 09:16:01;;;;;;;1.50;1.40;;;;;;;;;;4957385;28;20573;-51
2022/06/06 09:18:45;;;;;;;3.50;1.70;;;;;;;;;;4957188;29;20516;-52
2022/06/06 09:21:20;;;;;;;1.70;1.60;;;;;;;;;;4958102;28;20418;-52
2022/06/06 09:23:57;;;;;;;1.43;1.33;;;;;;;;;;4957575;28;20490;-51
2022/06/06 09:26:23;;;;;;;1.47;1.37;;;;;;;;;;4956924;28;20445;-51
2022/06/06 09:29:01;;;;;;;2.10;1.40;;;;;;;;;;4956704;28;20428;-51
2022/06/06 09:31:40;;;;;;;1.90;1.30;;;;;;;;;;4937781;29;20439;-51
2022/06/06 09:34:25;;;;;;;3.87;1.40;;;;;;;;;;4937859;29;20420;-51
2022/06/06 09:37:09;;;;;;;4.53;1.53;;;;;;;;;;4949024;29;20440;-50
2022/06/06 09:39:53;;;;;;;1.57;1.47;;;;;;;;;;4955273;29;20810;-49
2022/06/06 09:42:33;;;;;;;3.27;1.60;;;;;;;;;;4956400;28;20409;-52
2022/06/06 09:45:09;;;;;;;1.87;1.77;;;;;;;;;;4956373;28;20437;-49
2022/06/06 09:47:41;;;;;;;4.10;1.70;;;;;;;;;;4956621;28;20426;-52
2022/06/06 09:50:22;;;;;;;2.00;1.63;;;;;;;;;;4956603;28;20774;-52
2022/06/06 09:52:54;;;;;;;2.03;1.53;;;;;;;;;;4957015;28;20448;-52
2022/06/06 09:59:01;;;;;;;1.47;1.37;;;;;;;;;;4955324;29;20617;-51
2022/06/06 10:01:30;;;;;;;1.90;1.80;;;;;;;;;;4955907;28;20421;-51
2022/06/06 10:03:56;;;;;;;2.90;2.33;;;;;;;;;;4956393;28;20401;-52
2022/06/06 10:06:25;;;;;;;4.00;2.20;;;;;;;;;;4954806;28;20447;-52
2022/06/06 10:09:12;;;;;;;5.17;2.50;;;;;;;;;;4956465;28;20898;-50
2022/06/06 10:11:58;;;;;;;3.63;2.30;;;;;;;;;;4954080;28;20465;-50
2022/06/06 10:14:30;;;;;;;3.73;2.57;;;;;;;;;;4956134;28;20448;-51
2022/06/06 10:17:08;;;;;;;2.97;2.63;;;;;;;;;;4955343;28;20414;-49
2022/06/06 10:19:46;;;;;;;3.10;2.53;;;;;;;;;;4956051;28;20499;-49
2022/06/06 10:22:24;;;;;;;3.00;2.50;;;;;;;;;;4955662;28;20780;-49
2022/06/06 10:25:08;;;;;;;3.67;2.50;;;;;;;;;;4955625;28;20497;-51
2022/06/06 10:27:54;;;;;;;3.50;2.33;;;;;;;;;;4956061;28;20460;-52
2022/06/06 10:30:22;;;;;;;2.03;1.93;;;;;;;;;;4955296;28;20425;-50
2022/06/06 10:33:03;;;;;;;2.67;2.00;;;;;;;;;;4955955;28;20913;-51
2022/06/06 10:35:36;;;;;;;3.27;1.90;;;;;;;;;;4955178;28;20433;-52
2022/06/06 10:38:05;;;;;;;6.70;2.03;;;;;;;;;;4955781;28;20469;-51
2022/06/06 10:40:43;;;;;;;2.00;1.40;;;;;;;;;;4955383;28;20411;-51
2022/06/06 10:43:12;;;;;;;2.40;1.97;;;;;;;;;;4955507;28;20409;-52
2022/06/06 10:45:44;;;;;;;1.40;1.30;;;;;;;;;;4955092;28;20796;-51
2022/06/06 10:48:18;;;;;;;1.57;1.47;;;;;;;;;;4955589;28;20410;-52
2022/06/06 10:53:34;;;;;;;1.33;1.20;;;;;;;;;;4956451;29;20405;-51
2022/06/06 10:56:06;;;;;;;1.30;1.20;;;;;;;;;;4955311;28;20960;-53
2022/06/06 10:58:54;;;;;;;1.50;1.40;;;;;;;;;;4956035;28;21029;-52
2022/06/06 11:01:20;;;;;;;1.40;1.30;;;;;;;;;;4956191;28;20464;-53
2022/06/06 11:04:06;;;;;;;3.17;1.30;;;;;;;;;;4955786;28;20434;-51
2022/06/06 11:06:43;;;;;;;3.53;1.30;;;;;;;;;;4953374;28;20508;-51
2022/06/06 11:09:28;;;;;;;1.83;1.30;;;;;;;;;;4955162;28;20414;-52
2022/06/06 11:12:06;;;;;;;2.20;1.37;;;;;;;;;;4954610;28;20908;-51
2022/06/06 11:14:36;;;;;;;1.30;1.20;;;;;;;;;;4954734;28;20402;-51
2022/06/06 11:17:21;;;;;;;1.47;1.37;;;;;;;;;;4953990;28;20425;-52
2022/06/06 11:19:56;;;;;;;2.70;1.30;;;;;;;;;;4954277;28;20814;-50
2022/06/06 11:22:32;;;;;;;1.50;1.40;;;;;;;;;;4954952;28;20484;-51
2022/06/06 11:25:09;;;;;;;2.20;1.30;;;;;;;;;;4954102;28;20469;-51
2022/06/06 11:27:35;;;;;;;1.00;0.90;;;;;;;;;;4935787;29;20403;-51
2022/06/06 11:30:17;;;;;;;7.07;1.20;;;;;;;;;;4943311;29;20794;-51
2022/06/06 11:32:46;;;;;;;2.40;1.10;;;;;;;;;;4954516;28;20779;-50
2022/06/06 11:35:24;;;;;;;1.20;1.00;;;;;;;;;;4954397;28;20516;-51
2022/06/06 11:38:03;;;;;;;8.20;1.10;;;;;;;;;;4952834;29;20511;-50
2022/06/06 11:40:39;;;;;;;1.90;0.90;;;;;;;;;;4940210;28;20425;-51
2022/06/06 11:43:14;;;;;;;2.50;1.50;;;;;;;;;;4960641;28;20414;-51
2022/06/06 11:45:54;;;;;;;2.03;1.00;;;;;;;;;;4952958;28;20865;-51
2022/06/06 11:48:49;;;;;;;1.10;1.00;;;;;;;;;;4966171;28;20420;-51
2022/06/06 11:51:35;;;;;;;1.30;1.20;;;;;;;;;;4955068;28;20774;-51
2022/06/06 11:54:04;;;;;;;2.67;1.07;;;;;;;;;;4954495;28;20771;-50
2022/06/06 11:56:35;;;;;;;2.40;1.00;;;;;;;;;;4953400;28;20861;-50
2022/06/06 11:59:01;;;;;;;1.33;1.23;;;;;;;;;;4953544;28;20500;-51
2022/06/06 12:01:46;;;;;;;2.40;1.50;;;;;;;;;;4954096;28;20449;-51
2022/06/06 12:04:38;;;;;;;6.30;1.40;;;;;;;;;;4953983;28;20474;-51
2022/06/06 12:07:04;;;;;;;1.87;1.57;;;;;;;;;;4951660;29;20774;-51
2022/06/06 12:09:33;;;;;;;1.70;1.50;;;;;;;;;;4953723;28;20418;-50
2022/06/06 12:12:19;;;;;;;2.00;1.57;;;;;;;;;;4953661;28;20506;-51
2022/06/06 12:15:00;;;;;;;6.27;1.63;;;;;;;;;;4953647;28;20392;-50
2022/06/06 12:17:38;;;;;;;1.30;1.20;;;;;;;;;;4953788;28;20592;-49
2022/06/06 12:20:23;;;;;;;1.57;1.47;;;;;;;;;;4953744;28;20427;-50
2022/06/06 12:23:07;;;;;;;1.73;1.63;;;;;;;;;;4953813;28;20430;-51
2022/06/06 12:25:33;;;;;;;7.50;1.80;;;;;;;;;;4953848;28;20837;-51
2022/06/06 12:28:11;;;;;;;2.50;1.70;;;;;;;;;;4954040;28;20493;-51
2022/06/06 12:31:00;;;;;;;1.70;1.60;;;;;;;;;;4954039;28;20427;-51
2022/06/06 12:33:32;;;;;;;3.23;1.53;;;;;;;;;;4954288;28;20747;-51
2022/06/06 12:36:07;;;;;;;2.17;1.63;;;;;;;;;;4954682;28;20479;-52
2022/06/06 12:38:47;;;;;;;2.07;1.60;;;;;;;;;;4954031;28;20555;-51
2022/06/06 12:41:37;;;;;;;2.17;1.37;;;;;;;;;;4953209;28;20921;-51
2022/06/06 12:44:24;;;;;;;1.30;1.20;;;;;;;;;;4941254;29;20474;-52
2022/06/06 12:46:59;;;;;;;1.50;1.00;;;;;;;;;;4946639;28;20453;-51
2022/06/06 12:49:44;;;;;;;1.20;1.10;;;;;;;;;;4953247;28;20413;-52
2022/06/06 12:52:37;;;;;;;2.10;1.20;;;;;;;;;;4953186;28;20417;-52
2022/06/06 12:57:51;;;;;;;1.83;1.10;;;;;;;;;;4952806;28;20465;-51
2022/06/06 13:01:37;;;;;;;2.33;1.10;;;;;;;;;;4954134;28;20472;-52
2022/06/06 13:03:11;;;;;;;1.20;1.00;;;;;;;;;;4954279;28;20488;-52
2022/06/06 13:06:04;;;;;;;3.13;1.10;;;;;;;;;;4948476;29;20446;-53
2022/06/06 13:08:36;;;;;;;1.30;1.20;;;;;;;;;;4953071;28;20580;-51
2022/06/06 13:11:12;;;;;;;2.80;1.30;;;;;;;;;;4953279;28;20418;-52
2022/06/06 13:13:42;;;;;;;1.83;1.13;;;;;;;;;;4953406;28;20425;-52
2022/06/06 13:16:09;;;;;;;1.50;1.30;;;;;;;;;;4953075;28;20441;-52
2022/06/06 13:18:54;;;;;;;1.77;1.40;;;;;;;;;;4953026;28;20457;-50
2022/06/06 13:21:19;;;;;;;3.87;1.30;;;;;;;;;;4942358;29;20441;-52
2022/06/06 13:23:52;;;;;;;1.87;1.30;;;;;;;;;;4953194;28;20906;-52
2022/06/06 13:26:24;;;;;;;2.90;1.20;;;;;;;;;;4952097;28;20438;-52
2022/06/06 13:28:52;;;;;;;1.30;1.20;;;;;;;;;;4953516;28;20425;-51
2022/06/06 13:31:37;;;;;;;1.30;1.20;;;;;;;;;;4953718;28;20463;-52
2022/06/06 13:34:16;;;;;;;1.50;1.30;;;;;;;;;;4953382;28;20425;-51
2022/06/06 13:36:52;;;;;;;6.90;1.30;;;;;;;;;;4933925;29;20446;-51
2022/06/06 13:39:28;;;;;;;3.87;1.77;;;;;;;;;;4948896;29;20597;-51
2022/06/06 13:41:54;;;;;;;2.10;1.30;;;;;;;;;;4953813;28;20908;-52
2022/06/06 13:44:38;;;;;;;1.93;1.27;;;;;;;;;;4952690;28;20832;-52
2022/06/06 13:47:07;;;;;;;3.70;1.57;;;;;;;;;;4951277;28;20425;-52
2022/06/06 13:49:48;;;;;;;2.30;1.20;;;;;;;;;;4956792;28;20480;-51
2022/06/06 13:52:25;;;;;;;1.20;1.10;;;;;;;;;;4956787;28;20902;-52
2022/06/06 13:54:51;;;;;;;1.60;1.43;;;;;;;;;;4954108;28;20801;-51
2022/06/06 13:57:20;;;;;;;2.60;1.20;;;;;;;;;;4954435;28;20420;-52
2022/06/06 13:59:56;;;;;;;1.33;1.07;;;;;;;;;;4954396;28;20417;-49
2022/06/06 14:02:45;;;;;;;1.23;0.97;;;;;;;;;;4954886;28;20421;-52
2022/06/06 14:05:27;;;;;;;2.70;1.10;;;;;;;;;;4954120;29;21152;-50
2022/06/06 14:07:58;;;;;;;1.33;1.23;;;;;;;;;;4955868;28;20484;-50
2022/06/06 14:10:34;;;;;;;1.30;1.20;;;;;;;;;;4955836;28;20473;-52
2022/06/06 14:13:15;;;;;;;3.13;1.00;;;;;;;;;;4955464;28;20425;-50
2022/06/06 14:15:43;;;;;;;1.23;1.07;;;;;;;;;;4955652;28;20529;-51
2022/06/06 14:18:11;;;;;;;1.23;1.13;;;;;;;;;;4955547;28;20469;-51
2022/06/06 14:20:45;;;;;;;3.37;1.10;;;;;;;;;;4956600;28;20418;-52
2022/06/06 14:23:19;;;;;;;2.90;1.17;;;;;;;;;;4956505;28;20409;-52
2022/06/06 14:25:47;;;;;;;0.97;0.87;;;;;;;;;;4955998;28;20957;-52
2022/06/06 14:28:28;;;;;;;1.90;1.07;;;;;;;;;;4956199;28;20406;-52
2022/06/06 14:30:54;;;;;;;1.60;1.00;;;;;;;;;;4952574;29;21131;-52
2022/06/06 14:33:29;;;;;;;1.17;0.93;;;;;;;;;;4956047;28;20410;-52
2022/06/06 14:35:55;;;;;;;1.37;1.00;;;;;;;;;;4954251;28;20945;-52
2022/06/06 14:38:26;;;;;;;4.40;1.07;;;;;;;;;;4955655;28;20453;-51
2022/06/06 14:40:58;;;;;;;0.80;0.80;;;;;;;;;;4951932;29;20425;-52
2022/06/06 14:43:25;;;;;;;1.43;1.30;;;;;;;;;;4956156;29;20420;-51
2022/06/06 14:45:58;;;;;;;1.80;1.63;;;;;;;;;;4955917;28;21020;-53
2022/06/06 14:48:42;;;;;;;3.03;1.30;;;;;;;;;;4955944;28;20418;-52
2022/06/06 14:51:10;;;;;;;1.33;1.20;;;;;;;;;;4951332;29;20786;-51
2022/06/06 14:53:37;;;;;;;1.80;1.70;;;;;;;;;;4955914;28;20417;-52
2022/06/06 14:56:10;;;;;;;1.30;1.20;;;;;;;;;;4955588;28;20452;-52
2022/06/06 14:58:36;;;;;;;2.03;0.93;;;;;;;;;;4955983;28;20555;-52
2022/06/06 15:01:15;;;;;;;1.63;1.20;;;;;;;;;;4956753;28;20424;-53
2022/06/06 15:03:43;;;;;;;1.07;0.97;;;;;;;;;;4955644;28;20425;-52
2022/06/06 15:06:15;;;;;;;1.00;0.90;;;;;;;;;;4954584;28;20488;-51
2022/06/06 15:08:46;;;;;;;2.70;1.43;;;;;;;;;;4955498;28;20469;-53
2022/06/06 15:11:15;;;;;;;1.27;1.17;;;;;;;;;;4954961;28;20790;-52
2022/06/06 15:13:44;;;;;;;1.30;1.20;;;;;;;;;;4955231;28;20433;-52
2022/06/06 15:16:12;;;;;;;2.10;1.00;;;;;;;;;;4954859;28;20441;-51
2022/06/06 15:18:44;;;;;;;1.40;1.30;;;;;;;;;;4954760;28;20481;-53
2022/06/06 15:21:10;;;;;;;1.37;1.17;;;;;;;;;;4955346;29;20993;-52
2022/06/06 15:23:45;;;;;;;3.20;1.33;;;;;;;;;;4955509;28;20508;-53
2022/06/06 15:26:29;;;;;;;3.80;1.40;;;;;;;;;;4954989;28;20443;-52
2022/06/06 15:29:05;;;;;;;4.57;1.17;;;;;;;;;;4955741;28;20407;-52
2022/06/06 15:31:31;;;;;;;1.33;1.23;;;;;;;;;;4955940;28;20409;-52
2022/06/06 15:34:12;;;;;;;4.87;1.67;;;;;;;;;;4954973;28;20409;-52
2022/06/06 15:36:50;;;;;;;2.30;1.53;;;;;;;;;;4954933;28;20437;-52
2022/06/06 15:39:26;;;;;;;1.33;1.20;;;;;;;;;;4955486;28;20461;-53